Ames, South Dakota
Current Conditions -  °F | °C
As of 5:53 AM on Sunday 23 Nov 2014 (Local Time) from KPIR Reporting Station
Scattered Clouds Scattered Clouds  
Wind Chill: -1°   Ceiling: Unl
Heat Index:   Visibility: 10mi
Dew Point: -1°   Wind: 18mph
Humidity: 73%   Direction: 310°NW
Pressure: 29.54"   Gusts: NA
Location:  44.3693°N, 100.04°W
Report Text: KPIR 231153Z AUTO 31016KT 10SM SCT110 04/M01 A2954 RMK AO2 PK WND 30026/1143 SLP013 60000 T00391006 10050 20022 51024
Loading
Personal Weather Stations






























Interactive Weather Map New forecast layout! Learn more

10-Day Weather Forecast

Advertisements
Track Severe Weather on mobile